ヴィエンチャン の空港の天気 - METARとTAF

ワットタイ国際空港 ( VLVT / VTE ) - ラオス ヴィエンチャン
飛行場実況気象(Metar)
観測時間05/26 08:00 ICT (05/26 01:00 UTC)
風向・風速北北西 1m/s
視程8000m
天気現象
全天の4割程度の雲 雲底高度 6100m
気温30℃
湿度70%
気圧1005hPa
METARVLVT 260100Z 34002KT 8000 SCT200 30/24 Q1005 NOSIG
過去の天気等 Google飛行場航空写真 Wunderground天気予報

過去48時間のMETAR

飛行場予報(TAF)
発表時間: 5/26 06:00 ICT (5/25 23:00 UTC)
予報対象時間: 26日7時 ICT ~ 27日7時 ICT
風向・風速南西 1m/s
視程8000m
少しの雲 雲底高度 490m
少しの雲 雲底高度 1520m
全天の4割程度の雲 雲底高度 6100m
TAF VLVT 252300Z 2600/2624 22002KT 8000 FEW016 FEW050 SCT200